sensor_id;sensor_type;location;lat;lon;timestamp;P1;durP1;ratioP1;P2;durP2;ratioP2
11618;SDS011;5865;48.776;9.280;2023-04-29T00:47:49;5.50;;;4.60;;
11618;SDS011;5865;48.776;9.280;2023-04-29T00:50:39;5.00;;;4.47;;
11618;SDS011;5865;48.776;9.280;2023-04-29T00:53:34;4.60;;;4.13;;
11618;SDS011;5865;48.776;9.280;2023-04-29T00:57:30;4.20;;;3.70;;
11618;SDS011;5865;48.776;9.280;2023-04-29T01:07:07;5.27;;;4.07;;
11618;SDS011;5865;48.776;9.280;2023-04-29T01:10:00;4.10;;;3.50;;
11618;SDS011;5865;48.776;9.280;2023-04-29T01:12:42;3.60;;;3.30;;
11618;SDS011;5865;48.776;9.280;2023-04-29T01:15:27;4.37;;;3.30;;
11618;SDS011;5865;48.776;9.280;2023-04-29T01:18:25;3.63;;;3.07;;
11618;SDS011;5865;48.776;9.280;2023-04-29T01:21:12;3.80;;;3.40;;
11618;SDS011;5865;48.776;9.280;2023-04-29T01:30:00;6.07;;;2.67;;
11618;SDS011;5865;48.776;9.280;2023-04-29T01:32:46;3.67;;;3.30;;
11618;SDS011;5865;48.776;9.280;2023-04-29T01:38:55;5.97;;;5.37;;
11618;SDS011;5865;48.776;9.280;2023-04-29T01:41:49;5.03;;;4.47;;
11618;SDS011;5865;48.776;9.280;2023-04-29T01:44:55;7.13;;;5.47;;
11618;SDS011;5865;48.776;9.280;2023-04-29T02:06:18;6.03;;;5.13;;
11618;SDS011;5865;48.776;9.280;2023-04-29T02:09:02;6.07;;;4.87;;
11618;SDS011;5865;48.776;9.280;2023-04-29T02:11:33;5.97;;;3.80;;
11618;SDS011;5865;48.776;9.280;2023-04-29T02:14:03;4.13;;;3.50;;
11618;SDS011;5865;48.776;9.280;2023-04-29T02:16:49;7.10;;;4.83;;
11618;SDS011;5865;48.776;9.280;2023-04-29T02:22:46;5.10;;;4.03;;
11618;SDS011;5865;48.776;9.280;2023-04-29T02:25:27;4.70;;;3.60;;
11618;SDS011;5865;48.776;9.280;2023-04-29T02:28:24;6.67;;;3.70;;
11618;SDS011;5865;48.776;9.280;2023-04-29T02:30:56;6.43;;;3.93;;
11618;SDS011;5865;48.776;9.280;2023-04-29T02:33:37;4.20;;;3.80;;
11618;SDS011;5865;48.776;9.280;2023-04-29T02:36:18;4.20;;;3.80;;
11618;SDS011;5865;48.776;9.280;2023-04-29T02:39:02;7.40;;;4.43;;
11618;SDS011;5865;48.776;9.280;2023-04-29T02:41:44;5.73;;;4.10;;
11618;SDS011;5865;48.776;9.280;2023-04-29T02:44:25;5.13;;;4.10;;
11618;SDS011;5865;48.776;9.280;2023-04-29T02:47:06;5.40;;;4.20;;
11618;SDS011;5865;48.776;9.280;2023-04-29T02:49:47;5.50;;;3.87;;
11618;SDS011;5865;48.776;9.280;2023-04-29T02:52:30;8.03;;;3.97;;
11618;SDS011;5865;48.776;9.280;2023-04-29T02:58:07;5.60;;;4.33;;
11618;SDS011;5865;48.776;9.280;2023-04-29T03:00:49;4.40;;;4.00;;
11618;SDS011;5865;48.776;9.280;2023-04-29T03:03:26;4.53;;;4.00;;
11618;SDS011;5865;48.776;9.280;2023-04-29T03:06:08;4.27;;;3.87;;
11618;SDS011;5865;48.776;9.280;2023-04-29T03:08:49;6.63;;;3.80;;
11618;SDS011;5865;48.776;9.280;2023-04-29T03:11:40;5.37;;;3.90;;
11618;SDS011;5865;48.776;9.280;2023-04-29T03:14:21;5.63;;;3.70;;
11618;SDS011;5865;48.776;9.280;2023-04-29T03:17:03;3.80;;;3.40;;
11618;SDS011;5865;48.776;9.280;2023-04-29T03:19:45;3.70;;;3.20;;
11618;SDS011;5865;48.776;9.280;2023-04-29T03:22:26;4.17;;;3.20;;
11618;SDS011;5865;48.776;9.280;2023-04-29T03:25:08;4.30;;;3.10;;
11618;SDS011;5865;48.776;9.280;2023-04-29T03:27:55;4.30;;;3.47;;
11618;SDS011;5865;48.776;9.280;2023-04-29T03:30:37;4.40;;;3.50;;
11618;SDS011;5865;48.776;9.280;2023-04-29T03:33:18;4.60;;;3.57;;
11618;SDS011;5865;48.776;9.280;2023-04-29T03:35:59;3.73;;;3.30;;
11618;SDS011;5865;48.776;9.280;2023-04-29T03:38:50;3.90;;;3.50;;
11618;SDS011;5865;48.776;9.280;2023-04-29T03:41:28;3.63;;;3.20;;
11618;SDS011;5865;48.776;9.280;2023-04-29T04:06:30;6.23;;;4.00;;
11618;SDS011;5865;48.776;9.280;2023-04-29T04:09:12;4.43;;;4.03;;
11618;SDS011;5865;48.776;9.280;2023-04-29T04:11:53;4.87;;;3.77;;
11618;SDS011;5865;48.776;9.280;2023-04-29T05:02:57;5.07;;;4.50;;
11618;SDS011;5865;48.776;9.280;2023-04-29T05:05:25;7.07;;;5.27;;
11618;SDS011;5865;48.776;9.280;2023-04-29T05:07:54;7.03;;;5.17;;
11618;SDS011;5865;48.776;9.280;2023-04-29T05:10:29;5.73;;;5.17;;
11618;SDS011;5865;48.776;9.280;2023-04-29T05:13:00;7.83;;;5.97;;
11618;SDS011;5865;48.776;9.280;2023-04-29T05:15:27;6.83;;;6.13;;
11618;SDS011;5865;48.776;9.280;2023-04-29T05:17:59;8.43;;;6.30;;
11618;SDS011;5865;48.776;9.280;2023-04-29T05:20:28;8.67;;;6.80;;
11618;SDS011;5865;48.776;9.280;2023-04-29T05:22:59;6.83;;;5.80;;
11618;SDS011;5865;48.776;9.280;2023-04-29T05:25:28;10.73;;;6.43;;
11618;SDS011;5865;48.776;9.280;2023-04-29T05:27:56;7.93;;;6.20;;
11618;SDS011;5865;48.776;9.280;2023-04-29T05:30:28;8.90;;;7.20;;
11618;SDS011;5865;48.776;9.280;2023-04-29T05:32:55;12.17;;;8.50;;
11618;SDS011;5865;48.776;9.280;2023-04-29T05:35:24;11.17;;;8.70;;
11618;SDS011;5865;48.776;9.280;2023-04-29T05:37:53;10.00;;;7.93;;
11618;SDS011;5865;48.776;9.280;2023-04-29T05:40:35;11.93;;;9.57;;
11618;SDS011;5865;48.776;9.280;2023-04-29T05:43:21;11.97;;;10.33;;
11618;SDS011;5865;48.776;9.280;2023-04-29T05:45:51;13.33;;;9.07;;
11618;SDS011;5865;48.776;9.280;2023-04-29T05:48:18;12.10;;;9.93;;
11618;SDS011;5865;48.776;9.280;2023-04-29T05:50:47;12.03;;;10.17;;
11618;SDS011;5865;48.776;9.280;2023-04-29T05:53:15;12.83;;;9.63;;
11618;SDS011;5865;48.776;9.280;2023-04-29T05:55:42;14.80;;;11.03;;
11618;SDS011;5865;48.776;9.280;2023-04-29T05:58:10;10.67;;;9.60;;
11618;SDS011;5865;48.776;9.280;2023-04-29T06:00:39;12.97;;;9.97;;
11618;SDS011;5865;48.776;9.280;2023-04-29T06:03:16;10.50;;;9.40;;
11618;SDS011;5865;48.776;9.280;2023-04-29T06:05:44;12.80;;;10.10;;
11618;SDS011;5865;48.776;9.280;2023-04-29T06:08:38;13.63;;;10.60;;
11618;SDS011;5865;48.776;9.280;2023-04-29T06:11:18;10.07;;;8.97;;
11618;SDS011;5865;48.776;9.280;2023-04-29T06:13:46;10.60;;;9.43;;
11618;SDS011;5865;48.776;9.280;2023-04-29T06:16:14;10.60;;;9.43;;
11618;SDS011;5865;48.776;9.280;2023-04-29T06:18:43;11.07;;;9.97;;
11618;SDS011;5865;48.776;9.280;2023-04-29T06:21:12;10.80;;;9.70;;
11618;SDS011;5865;48.776;9.280;2023-04-29T06:23:42;10.30;;;9.13;;
11618;SDS011;5865;48.776;9.280;2023-04-29T06:26:15;9.47;;;8.47;;
11618;SDS011;5865;48.776;9.280;2023-04-29T06:28:44;7.97;;;7.17;;
11618;SDS011;5865;48.776;9.280;2023-04-29T06:31:13;7.40;;;6.60;;
11618;SDS011;5865;48.776;9.280;2023-04-29T06:33:41;8.15;;;7.35;;
11618;SDS011;5865;48.776;9.280;2023-04-29T06:36:09;7.22;;;6.30;;
11618;SDS011;5865;48.776;9.280;2023-04-29T06:39:05;8.60;;;7.25;;
11618;SDS011;5865;48.776;9.280;2023-04-29T06:41:35;5.68;;;5.13;;
11618;SDS011;5865;48.776;9.280;2023-04-29T06:44:28;4.73;;;4.27;;
11618;SDS011;5865;48.776;9.280;2023-04-29T06:47:16;4.65;;;4.13;;
11618;SDS011;5865;48.776;9.280;2023-04-29T06:49:56;5.28;;;4.60;;
11618;SDS011;5865;48.776;9.280;2023-04-29T06:52:26;5.03;;;4.60;;
11618;SDS011;5865;48.776;9.280;2023-04-29T06:54:55;3.83;;;3.33;;
11618;SDS011;5865;48.776;9.280;2023-04-29T06:57:24;3.95;;;3.50;;
11618;SDS011;5865;48.776;9.280;2023-04-29T06:59:53;4.22;;;3.47;;
11618;SDS011;5865;48.776;9.280;2023-04-29T07:02:23;3.50;;;3.20;;
11618;SDS011;5865;48.776;9.280;2023-04-29T07:05:08;3.25;;;2.75;;
11618;SDS011;5865;48.776;9.280;2023-04-29T07:08:01;2.70;;;2.50;;
11618;SDS011;5865;48.776;9.280;2023-04-29T07:20:12;2.70;;;2.50;;
11618;SDS011;5865;48.776;9.280;2023-04-29T07:22:54;2.58;;;2.38;;
11618;SDS011;5865;48.776;9.280;2023-04-29T07:25:37;2.55;;;2.08;;
11618;SDS011;5865;48.776;9.280;2023-04-29T07:28:22;2.63;;;2.03;;
11618;SDS011;5865;48.776;9.280;2023-04-29T07:31:03;2.83;;;1.90;;
11618;SDS011;5865;48.776;9.280;2023-04-29T07:33:49;4.20;;;1.98;;
11618;SDS011;5865;48.776;9.280;2023-04-29T07:36:26;2.25;;;1.70;;
11618;SDS011;5865;48.776;9.280;2023-04-29T07:39:02;1.90;;;1.70;;
11618;SDS011;5865;48.776;9.280;2023-04-29T07:41:50;3.20;;;1.98;;
11618;SDS011;5865;48.776;9.280;2023-04-29T07:44:34;3.28;;;1.92;;
11618;SDS011;5865;48.776;9.280;2023-04-29T07:47:17;3.60;;;1.90;;
11618;SDS011;5865;48.776;9.280;2023-04-29T07:49:55;1.75;;;1.60;;
11618;SDS011;5865;48.776;9.280;2023-04-29T07:58:32;1.70;;;1.60;;
11618;SDS011;5865;48.776;9.280;2023-04-29T08:01:16;1.60;;;1.50;;
11618;SDS011;5865;48.776;9.280;2023-04-29T08:03:58;1.70;;;1.58;;
11618;SDS011;5865;48.776;9.280;2023-04-29T08:06:27;3.92;;;1.67;;
11618;SDS011;5865;48.776;9.280;2023-04-29T08:09:10;1.85;;;1.42;;
11618;SDS011;5865;48.776;9.280;2023-04-29T08:11:51;1.40;;;1.30;;
11618;SDS011;5865;48.776;9.280;2023-04-29T08:14:27;2.20;;;1.50;;
11618;SDS011;5865;48.776;9.280;2023-04-29T08:17:08;1.80;;;1.70;;
11618;SDS011;5865;48.776;9.280;2023-04-29T08:19:50;1.73;;;1.50;;
11618;SDS011;5865;48.776;9.280;2023-04-29T08:22:17;1.52;;;1.42;;
11618;SDS011;5865;48.776;9.280;2023-04-29T08:24:44;2.53;;;1.48;;
11618;SDS011;5865;48.776;9.280;2023-04-29T08:27:25;1.75;;;1.65;;
11618;SDS011;5865;48.776;9.280;2023-04-29T08:33:25;1.88;;;1.60;;
11618;SDS011;5865;48.776;9.280;2023-04-29T08:36:06;1.80;;;1.70;;
11618;SDS011;5865;48.776;9.280;2023-04-29T08:38:33;1.50;;;1.40;;
11618;SDS011;5865;48.776;9.280;2023-04-29T08:41:14;1.42;;;1.33;;
11618;SDS011;5865;48.776;9.280;2023-04-29T08:43:55;2.15;;;1.65;;
11618;SDS011;5865;48.776;9.280;2023-04-29T08:46:37;1.73;;;1.58;;
11618;SDS011;5865;48.776;9.280;2023-04-29T08:55:48;2.13;;;1.92;;
11618;SDS011;5865;48.776;9.280;2023-04-29T08:58:30;2.17;;;1.85;;
11618;SDS011;5865;48.776;9.280;2023-04-29T09:01:15;2.17;;;2.00;;
11618;SDS011;5865;48.776;9.280;2023-04-29T09:04:00;2.92;;;1.98;;
11618;SDS011;5865;48.776;9.280;2023-04-29T09:06:44;2.50;;;1.88;;
11618;SDS011;5865;48.776;9.280;2023-04-29T09:09:26;3.35;;;2.90;;
11618;SDS011;5865;48.776;9.280;2023-04-29T09:15:07;2.90;;;2.00;;
11618;SDS011;5865;48.776;9.280;2023-04-29T09:17:39;22.13;;;17.08;;
11618;SDS011;5865;48.776;9.280;2023-04-29T09:20:24;2.22;;;2.03;;
11618;SDS011;5865;48.776;9.280;2023-04-29T09:23:06;2.20;;;1.80;;
11618;SDS011;5865;48.776;9.280;2023-04-29T09:25:53;2.00;;;1.83;;
11618;SDS011;5865;48.776;9.280;2023-04-29T09:38:08;2.25;;;1.80;;
11618;SDS011;5865;48.776;9.280;2023-04-29T09:40:36;2.00;;;1.90;;
11618;SDS011;5865;48.776;9.280;2023-04-29T09:43:17;3.67;;;1.80;;
11618;SDS011;5865;48.776;9.280;2023-04-29T09:45:58;2.38;;;1.70;;
11618;SDS011;5865;48.776;9.280;2023-04-29T09:48:39;2.00;;;1.90;;
11618;SDS011;5865;48.776;9.280;2023-04-29T09:57:46;5.63;;;4.57;;
11618;SDS011;5865;48.776;9.280;2023-04-29T10:00:33;1.90;;;1.80;;
11618;SDS011;5865;48.776;9.280;2023-04-29T10:03:14;2.03;;;1.83;;
11618;SDS011;5865;48.776;9.280;2023-04-29T10:05:58;2.28;;;1.90;;
11618;SDS011;5865;48.776;9.280;2023-04-29T10:08:39;1.90;;;1.75;;
11618;SDS011;5865;48.776;9.280;2023-04-29T10:17:45;1.60;;;1.50;;
11618;SDS011;5865;48.776;9.280;2023-04-29T10:20:28;1.73;;;1.50;;
11618;SDS011;5865;48.776;9.280;2023-04-29T10:23:14;1.55;;;1.45;;
11618;SDS011;5865;48.776;9.280;2023-04-29T10:25:55;2.85;;;1.92;;
11618;SDS011;5865;48.776;9.280;2023-04-29T10:28:37;2.80;;;1.70;;
11618;SDS011;5865;48.776;9.280;2023-04-29T10:31:10;2.13;;;1.55;;
11618;SDS011;5865;48.776;9.280;2023-04-29T10:36:54;2.35;;;2.15;;
11618;SDS011;5865;48.776;9.280;2023-04-29T10:39:38;1.92;;;1.83;;
11618;SDS011;5865;48.776;9.280;2023-04-29T10:42:30;2.22;;;1.88;;
11618;SDS011;5865;48.776;9.280;2023-04-29T10:45:20;3.35;;;2.10;;
11618;SDS011;5865;48.776;9.280;2023-04-29T10:48:11;2.10;;;1.90;;
11618;SDS011;5865;48.776;9.280;2023-04-29T10:51:01;3.20;;;1.92;;
11618;SDS011;5865;48.776;9.280;2023-04-29T10:57:11;2.65;;;1.75;;
11618;SDS011;5865;48.776;9.280;2023-04-29T10:59:49;2.80;;;1.60;;
11618;SDS011;5865;48.776;9.280;2023-04-29T11:02:20;2.80;;;1.77;;
11618;SDS011;5865;48.776;9.280;2023-04-29T11:05:06;3.13;;;1.90;;
11618;SDS011;5865;48.776;9.280;2023-04-29T11:07:34;1.55;;;1.42;;
11618;SDS011;5865;48.776;9.280;2023-04-29T14:11:44;4.88;;;3.63;;
11618;SDS011;5865;48.776;9.280;2023-04-29T14:14:12;3.67;;;3.35;;
11618;SDS011;5865;48.776;9.280;2023-04-29T14:16:40;4.78;;;4.10;;
11618;SDS011;5865;48.776;9.280;2023-04-29T14:19:07;4.22;;;3.60;;
11618;SDS011;5865;48.776;9.280;2023-04-29T14:21:35;3.75;;;3.45;;
11618;SDS011;5865;48.776;9.280;2023-04-29T14:24:02;5.28;;;3.95;;
11618;SDS011;5865;48.776;9.280;2023-04-29T14:26:30;4.45;;;3.80;;
11618;SDS011;5865;48.776;9.280;2023-04-29T14:28:58;5.85;;;4.45;;
11618;SDS011;5865;48.776;9.280;2023-04-29T14:31:25;5.70;;;5.10;;
11618;SDS011;5865;48.776;9.280;2023-04-29T14:33:53;4.68;;;3.90;;
11618;SDS011;5865;48.776;9.280;2023-04-29T14:36:20;3.88;;;3.55;;
11618;SDS011;5865;48.776;9.280;2023-04-29T14:38:48;4.00;;;3.60;;
11618;SDS011;5865;48.776;9.280;2023-04-29T14:41:15;4.60;;;4.00;;
11618;SDS011;5865;48.776;9.280;2023-04-29T14:43:42;4.25;;;3.83;;
11618;SDS011;5865;48.776;9.280;2023-04-29T14:46:10;4.30;;;3.88;;
11618;SDS011;5865;48.776;9.280;2023-04-29T14:48:37;5.00;;;4.43;;
11618;SDS011;5865;48.776;9.280;2023-04-29T14:51:04;4.80;;;4.40;;
11618;SDS011;5865;48.776;9.280;2023-04-29T14:53:32;5.53;;;5.03;;
11618;SDS011;5865;48.776;9.280;2023-04-29T14:55:59;4.78;;;4.35;;
11618;SDS011;5865;48.776;9.280;2023-04-29T14:58:27;5.32;;;4.38;;
11618;SDS011;5865;48.776;9.280;2023-04-29T15:00:54;4.43;;;4.00;;
11618;SDS011;5865;48.776;9.280;2023-04-29T15:03:23;4.70;;;4.30;;
11618;SDS011;5865;48.776;9.280;2023-04-29T15:05:50;5.20;;;4.43;;
11618;SDS011;5865;48.776;9.280;2023-04-29T15:08:17;4.88;;;4.38;;
11618;SDS011;5865;48.776;9.280;2023-04-29T15:10:44;4.45;;;4.05;;
11618;SDS011;5865;48.776;9.280;2023-04-29T15:13:12;8.55;;;7.68;;
11618;SDS011;5865;48.776;9.280;2023-04-29T15:15:39;5.50;;;4.35;;
11618;SDS011;5865;48.776;9.280;2023-04-29T15:18:06;4.55;;;4.13;;
11618;SDS011;5865;48.776;9.280;2023-04-29T15:20:34;4.88;;;4.30;;
11618;SDS011;5865;48.776;9.280;2023-04-29T15:23:02;4.97;;;4.30;;
11618;SDS011;5865;48.776;9.280;2023-04-29T15:25:29;7.85;;;4.47;;
11618;SDS011;5865;48.776;9.280;2023-04-29T15:27:57;5.20;;;4.60;;
11618;SDS011;5865;48.776;9.280;2023-04-29T15:30:25;5.35;;;4.63;;
11618;SDS011;5865;48.776;9.280;2023-04-29T15:32:52;6.82;;;5.03;;
11618;SDS011;5865;48.776;9.280;2023-04-29T15:35:20;7.57;;;4.82;;
11618;SDS011;5865;48.776;9.280;2023-04-29T15:37:48;5.32;;;4.82;;
11618;SDS011;5865;48.776;9.280;2023-04-29T15:40:15;5.28;;;4.68;;
11618;SDS011;5865;48.776;9.280;2023-04-29T15:42:42;5.95;;;4.63;;
11618;SDS011;5865;48.776;9.280;2023-04-29T15:45:09;5.25;;;4.50;;
11618;SDS011;5865;48.776;9.280;2023-04-29T15:47:37;5.85;;;5.18;;
11618;SDS011;5865;48.776;9.280;2023-04-29T15:50:04;7.43;;;4.97;;
11618;SDS011;5865;48.776;9.280;2023-04-29T15:52:33;5.57;;;4.45;;
11618;SDS011;5865;48.776;9.280;2023-04-29T15:55:02;7.15;;;5.10;;
11618;SDS011;5865;48.776;9.280;2023-04-29T15:57:29;6.10;;;4.80;;
11618;SDS011;5865;48.776;9.280;2023-04-29T15:59:56;10.07;;;5.20;;
11618;SDS011;5865;48.776;9.280;2023-04-29T16:02:23;5.40;;;4.90;;
11618;SDS011;5865;48.776;9.280;2023-04-29T16:04:50;5.57;;;4.70;;
11618;SDS011;5865;48.776;9.280;2023-04-29T16:07:17;5.50;;;4.78;;
11618;SDS011;5865;48.776;9.280;2023-04-29T16:09:45;5.35;;;4.82;;
11618;SDS011;5865;48.776;9.280;2023-04-29T16:12:13;6.05;;;4.70;;
11618;SDS011;5865;48.776;9.280;2023-04-29T16:14:40;6.13;;;4.40;;
11618;SDS011;5865;48.776;9.280;2023-04-29T16:17:07;5.22;;;4.50;;
11618;SDS011;5865;48.776;9.280;2023-04-29T16:19:34;5.03;;;4.53;;
11618;SDS011;5865;48.776;9.280;2023-04-29T16:22:01;6.38;;;4.75;;
11618;SDS011;5865;48.776;9.280;2023-04-29T16:24:28;4.45;;;3.97;;
11618;SDS011;5865;48.776;9.280;2023-04-29T16:26:56;6.57;;;4.72;;
11618;SDS011;5865;48.776;9.280;2023-04-29T16:29:25;5.85;;;4.50;;
11618;SDS011;5865;48.776;9.280;2023-04-29T16:31:52;6.00;;;4.85;;
11618;SDS011;5865;48.776;9.280;2023-04-29T16:34:19;5.90;;;4.78;;
11618;SDS011;5865;48.776;9.280;2023-04-29T16:36:46;5.53;;;4.40;;
11618;SDS011;5865;48.776;9.280;2023-04-29T16:39:13;4.80;;;4.05;;
11618;SDS011;5865;48.776;9.280;2023-04-29T16:41:40;4.97;;;4.35;;
11618;SDS011;5865;48.776;9.280;2023-04-29T16:44:07;4.80;;;4.30;;
11618;SDS011;5865;48.776;9.280;2023-04-29T16:46:37;5.43;;;4.57;;
11618;SDS011;5865;48.776;9.280;2023-04-29T16:49:04;5.45;;;4.38;;
11618;SDS011;5865;48.776;9.280;2023-04-29T16:51:31;5.63;;;4.47;;
11618;SDS011;5865;48.776;9.280;2023-04-29T16:53:58;5.07;;;4.47;;
11618;SDS011;5865;48.776;9.280;2023-04-29T16:56:25;6.03;;;4.90;;
11618;SDS011;5865;48.776;9.280;2023-04-29T16:58:53;6.30;;;5.22;;
11618;SDS011;5865;48.776;9.280;2023-04-29T17:01:20;5.95;;;5.07;;
11618;SDS011;5865;48.776;9.280;2023-04-29T17:03:48;5.85;;;4.72;;
11618;SDS011;5865;48.776;9.280;2023-04-29T17:06:15;5.87;;;4.90;;
11618;SDS011;5865;48.776;9.280;2023-04-29T17:08:43;5.40;;;4.77;;
11618;SDS011;5865;48.776;9.280;2023-04-29T17:11:10;5.40;;;4.72;;
11618;SDS011;5865;48.776;9.280;2023-04-29T17:13:37;7.53;;;4.97;;
11618;SDS011;5865;48.776;9.280;2023-04-29T17:16:04;6.15;;;4.75;;
11618;SDS011;5865;48.776;9.280;2023-04-29T17:18:32;6.73;;;4.90;;
11618;SDS011;5865;48.776;9.280;2023-04-29T17:21:00;7.17;;;5.10;;
11618;SDS011;5865;48.776;9.280;2023-04-29T17:23:27;6.70;;;4.90;;
11618;SDS011;5865;48.776;9.280;2023-04-29T17:25:55;5.73;;;4.67;;
11618;SDS011;5865;48.776;9.280;2023-04-29T17:28:22;9.40;;;7.47;;
11618;SDS011;5865;48.776;9.280;2023-04-29T17:30:49;5.03;;;4.33;;
11618;SDS011;5865;48.776;9.280;2023-04-29T17:33:19;5.13;;;4.30;;
11618;SDS011;5865;48.776;9.280;2023-04-29T17:35:46;4.63;;;4.13;;
11618;SDS011;5865;48.776;9.280;2023-04-29T17:38:15;5.83;;;4.67;;
11618;SDS011;5865;48.776;9.280;2023-04-29T17:40:42;5.45;;;4.95;;
11618;SDS011;5865;48.776;9.280;2023-04-29T17:43:09;5.93;;;4.87;;
11618;SDS011;5865;48.776;9.280;2023-04-29T17:45:38;6.30;;;4.90;;
11618;SDS011;5865;48.776;9.280;2023-04-29T17:48:05;5.70;;;4.90;;
11618;SDS011;5865;48.776;9.280;2023-04-29T17:50:32;10.00;;;6.90;;
11618;SDS011;5865;48.776;9.280;2023-04-29T17:52:59;6.30;;;4.73;;
11618;SDS011;5865;48.776;9.280;2023-04-29T17:55:27;6.40;;;4.50;;
11618;SDS011;5865;48.776;9.280;2023-04-29T17:57:55;5.83;;;4.77;;
11618;SDS011;5865;48.776;9.280;2023-04-29T18:00:25;4.90;;;4.40;;
11618;SDS011;5865;48.776;9.280;2023-04-29T18:02:52;5.67;;;4.80;;
11618;SDS011;5865;48.776;9.280;2023-04-29T18:05:19;5.33;;;4.43;;
11618;SDS011;5865;48.776;9.280;2023-04-29T18:07:46;5.93;;;4.43;;
11618;SDS011;5865;48.776;9.280;2023-04-29T18:10:13;5.00;;;4.27;;
11618;SDS011;5865;48.776;9.280;2023-04-29T18:12:42;6.40;;;4.37;;
11618;SDS011;5865;48.776;9.280;2023-04-29T18:15:10;5.27;;;4.20;;
11618;SDS011;5865;48.776;9.280;2023-04-29T18:17:40;4.87;;;4.10;;
11618;SDS011;5865;48.776;9.280;2023-04-29T18:20:07;4.97;;;4.20;;
11618;SDS011;5865;48.776;9.280;2023-04-29T18:22:35;4.73;;;4.00;;
11618;SDS011;5865;48.776;9.280;2023-04-29T18:25:02;5.97;;;4.30;;
11618;SDS011;5865;48.776;9.280;2023-04-29T18:27:30;4.90;;;4.40;;
11618;SDS011;5865;48.776;9.280;2023-04-29T18:29:58;4.67;;;4.10;;
11618;SDS011;5865;48.776;9.280;2023-04-29T18:32:25;5.17;;;4.37;;
11618;SDS011;5865;48.776;9.280;2023-04-29T18:34:52;4.97;;;4.30;;
11618;SDS011;5865;48.776;9.280;2023-04-29T18:37:20;4.50;;;3.90;;
11618;SDS011;5865;48.776;9.280;2023-04-29T18:39:47;5.43;;;4.70;;
11618;SDS011;5865;48.776;9.280;2023-04-29T18:42:14;5.33;;;4.30;;
11618;SDS011;5865;48.776;9.280;2023-04-29T18:44:41;6.03;;;4.63;;
11618;SDS011;5865;48.776;9.280;2023-04-29T18:47:11;4.40;;;4.00;;
11618;SDS011;5865;48.776;9.280;2023-04-29T18:49:38;5.30;;;4.43;;
11618;SDS011;5865;48.776;9.280;2023-04-29T18:52:05;5.47;;;4.60;;
11618;SDS011;5865;48.776;9.280;2023-04-29T18:54:32;5.17;;;4.10;;
11618;SDS011;5865;48.776;9.280;2023-04-29T18:56:59;6.03;;;4.80;;
11618;SDS011;5865;48.776;9.280;2023-04-29T18:59:26;5.47;;;4.70;;
11618;SDS011;5865;48.776;9.280;2023-04-29T19:01:53;5.73;;;4.30;;
11618;SDS011;5865;48.776;9.280;2023-04-29T19:04:22;5.50;;;4.80;;
11618;SDS011;5865;48.776;9.280;2023-04-29T19:06:49;5.17;;;4.67;;
11618;SDS011;5865;48.776;9.280;2023-04-29T19:09:16;5.90;;;4.60;;
11618;SDS011;5865;48.776;9.280;2023-04-29T19:11:43;5.50;;;4.53;;
11618;SDS011;5865;48.776;9.280;2023-04-29T19:14:10;7.77;;;5.40;;
11618;SDS011;5865;48.776;9.280;2023-04-29T19:16:37;4.90;;;4.40;;
11618;SDS011;5865;48.776;9.280;2023-04-29T19:19:04;6.97;;;5.20;;
11618;SDS011;5865;48.776;9.280;2023-04-29T19:21:33;5.10;;;4.37;;
11618;SDS011;5865;48.776;9.280;2023-04-29T19:24:00;5.80;;;5.00;;
11618;SDS011;5865;48.776;9.280;2023-04-29T19:26:28;5.00;;;4.50;;
11618;SDS011;5865;48.776;9.280;2023-04-29T19:28:55;6.57;;;4.77;;
11618;SDS011;5865;48.776;9.280;2023-04-29T19:31:22;6.03;;;4.50;;
11618;SDS011;5865;48.776;9.280;2023-04-29T19:33:49;9.63;;;5.90;;
11618;SDS011;5865;48.776;9.280;2023-04-29T19:36:16;5.90;;;5.13;;
11618;SDS011;5865;48.776;9.280;2023-04-29T19:38:45;5.63;;;4.90;;
11618;SDS011;5865;48.776;9.280;2023-04-29T19:41:12;6.67;;;5.20;;
11618;SDS011;5865;48.776;9.280;2023-04-29T19:43:39;8.07;;;5.10;;
11618;SDS011;5865;48.776;9.280;2023-04-29T19:46:06;6.23;;;5.10;;
11618;SDS011;5865;48.776;9.280;2023-04-29T19:48:33;6.83;;;5.10;;
11618;SDS011;5865;48.776;9.280;2023-04-29T19:51:00;6.97;;;5.17;;
11618;SDS011;5865;48.776;9.280;2023-04-29T19:53:27;6.77;;;5.20;;
11618;SDS011;5865;48.776;9.280;2023-04-29T19:55:55;7.77;;;5.13;;
11618;SDS011;5865;48.776;9.280;2023-04-29T19:58:22;5.30;;;4.73;;
11618;SDS011;5865;48.776;9.280;2023-04-29T20:00:49;5.47;;;4.90;;
11618;SDS011;5865;48.776;9.280;2023-04-29T20:03:16;5.63;;;5.00;;
11618;SDS011;5865;48.776;9.280;2023-04-29T20:05:43;5.33;;;4.80;;
11618;SDS011;5865;48.776;9.280;2023-04-29T20:08:11;5.53;;;5.03;;
11618;SDS011;5865;48.776;9.280;2023-04-29T20:10:38;5.70;;;4.50;;
11618;SDS011;5865;48.776;9.280;2023-04-29T20:13:07;6.80;;;4.67;;
11618;SDS011;5865;48.776;9.280;2023-04-29T20:15:34;5.57;;;4.83;;
11618;SDS011;5865;48.776;9.280;2023-04-29T20:18:01;5.13;;;4.63;;
11618;SDS011;5865;48.776;9.280;2023-04-29T20:20:29;6.17;;;4.87;;
11618;SDS011;5865;48.776;9.280;2023-04-29T20:22:56;5.10;;;4.60;;
11618;SDS011;5865;48.776;9.280;2023-04-29T20:25:24;6.00;;;4.73;;
11618;SDS011;5865;48.776;9.280;2023-04-29T20:27:51;5.00;;;4.50;;
11618;SDS011;5865;48.776;9.280;2023-04-29T20:30:20;4.97;;;4.47;;
11618;SDS011;5865;48.776;9.280;2023-04-29T20:32:47;5.67;;;4.87;;
11618;SDS011;5865;48.776;9.280;2023-04-29T20:35:15;6.43;;;5.07;;
11618;SDS011;5865;48.776;9.280;2023-04-29T20:37:44;6.00;;;5.00;;
11618;SDS011;5865;48.776;9.280;2023-04-29T20:40:12;6.60;;;4.80;;
11618;SDS011;5865;48.776;9.280;2023-04-29T20:42:40;7.50;;;5.20;;
11618;SDS011;5865;48.776;9.280;2023-04-29T20:45:08;6.87;;;4.93;;
11618;SDS011;5865;48.776;9.280;2023-04-29T20:47:37;5.83;;;4.77;;
11618;SDS011;5865;48.776;9.280;2023-04-29T20:50:04;5.90;;;4.97;;
11618;SDS011;5865;48.776;9.280;2023-04-29T20:52:40;7.10;;;5.27;;
11618;SDS011;5865;48.776;9.280;2023-04-29T20:55:08;6.10;;;5.20;;
11618;SDS011;5865;48.776;9.280;2023-04-29T20:57:36;6.90;;;5.50;;
11618;SDS011;5865;48.776;9.280;2023-04-29T21:00:04;5.87;;;5.13;;
11618;SDS011;5865;48.776;9.280;2023-04-29T23:12:46;5.30;;;4.70;;
11618;SDS011;5865;48.776;9.280;2023-04-29T23:15:27;5.67;;;4.70;;
11618;SDS011;5865;48.776;9.280;2023-04-29T23:18:08;6.77;;;4.80;;
11618;SDS011;5865;48.776;9.280;2023-04-29T23:20:35;5.43;;;4.20;;
11618;SDS011;5865;48.776;9.280;2023-04-29T23:23:17;4.70;;;4.30;;
11618;SDS011;5865;48.776;9.280;2023-04-29T23:25:58;5.00;;;4.00;;
11618;SDS011;5865;48.776;9.280;2023-04-29T23:37:45;5.23;;;4.20;;
11618;SDS011;5865;48.776;9.280;2023-04-29T23:40:26;6.17;;;4.50;;
11618;SDS011;5865;48.776;9.280;2023-04-29T23:43:07;7.07;;;4.80;;
11618;SDS011;5865;48.776;9.280;2023-04-29T23:45:48;6.93;;;4.30;;
11618;SDS011;5865;48.776;9.280;2023-04-29T23:48:30;5.80;;;4.70;;
11618;SDS011;5865;48.776;9.280;2023-04-29T23:51:14;5.07;;;4.40;;
11618;SDS011;5865;48.776;9.280;2023-04-29T23:53:55;4.97;;;4.47;;
11618;SDS011;5865;48.776;9.280;2023-04-29T23:56:36;4.90;;;4.20;;
11618;SDS011;5865;48.776;9.280;2023-04-29T23:59:17;6.00;;;4.47;;
